This is the latest recevied weather packets stored in our database for station/object IU1INZ-13. If no packets are shown the sender has not sent any weather packets the latest 10 day(s).
| Time | Temp. | Humidity | Pressure | Rain* | Wind** | Luminosity | Snow |
|---|---|---|---|---|---|---|---|
| 1777873536 | 13.89° C | 64% | 1017.8 hPa | 0 mm | - | - | - |
| 1777872635 | 13.33° C | 75% | 1017.6 hPa | 0 mm | - | - | - |
| 1777871734 | 12.78° C | 79% | 1017.4 hPa | 0 mm | - | - | - |
| 1777870834 | 12.78° C | 82% | 1017.5 hPa | 0 mm | - | - | - |
| 1777869945 | 12.78° C | 81% | 1017.3 hPa | 0 mm | - | - | - |
| 1777869036 | 12.78° C | 81% | 1017.3 hPa | 0 mm | - | - | - |
| 1777868135 | 12.78° C | 81% | 1017.3 hPa | 0 mm | - | - | - |
| 1777867244 | 12.22° C | 80% | 1017 hPa | 0 mm | - | - | - |
| 1777866339 | 12.78° C | 79% | 1017.1 hPa | 0 mm | - | - | - |
| 1777865431 | 12.78° C | 80% | 1017 hPa | 0 mm | - | - | - |
| 1777864536 | 12.78° C | 79% | 1017.1 hPa | 0 mm | - | - | - |
| 1777863635 | 13.89° C | 76% | 1017.3 hPa | 0 mm | - | - | - |
| 1777862735 | 13.89° C | 76% | 1017.2 hPa | 0 mm | - | - | - |
| 1777861840 | 13.33° C | 78% | 1017.1 hPa | 0 mm | - | - | - |
| 1777860935 | 12.78° C | 79% | 1017.4 hPa | 0 mm | - | - | - |
| 1777860033 | 12.78° C | 77% | 1017.2 hPa | 0 mm | - | - | - |
| 1777859134 | 12.78° C | 77% | 1017.1 hPa | 0 mm | - | - | - |
| 1777858246 | 12.78° C | 76% | 1017.1 hPa | 0 mm | - | - | - |
| 1777857341 | 12.78° C | 76% | 1017.1 hPa | 0 mm | - | - | - |
| 1777856437 | 13.33° C | 73% | 1017.3 hPa | 0 mm | - | - | - |
| 1777855536 | 14.44° C | 69% | 1017.4 hPa | 0 mm | - | - | - |
| 1777854635 | 14.44° C | 70% | 1017.6 hPa | 0 mm | - | - | - |
| 1777853733 | 14.44° C | 71% | 1017.6 hPa | 0 mm | - | - | - |
| 1777852837 | 14.44° C | 72% | 1017.3 hPa | 0 mm | - | - | - |
| 1777851936 | 14.44° C | 70% | 1017.6 hPa | 0 mm | - | - | - |
* Rain latest hour (hover to see other rain measurements)
** Current wind speed in m/s (hover to see current wind gust speed)